createdAt,value
2019-05-12T00:00:01.213Z,8.36
2019-05-12T00:01:01.297Z,8.34
2019-05-12T00:02:01.288Z,8.30
2019-05-12T00:03:01.326Z,8.33
2019-05-12T00:04:01.367Z,8.30
2019-05-12T00:05:01.402Z,8.36
2019-05-12T00:06:01.443Z,8.37
2019-05-12T00:07:01.481Z,8.33
2019-05-12T00:08:01.518Z,8.40
2019-05-12T00:09:01.556Z,8.36
2019-05-12T00:10:01.599Z,8.34
2019-05-12T00:11:01.634Z,8.37
2019-05-12T00:12:01.673Z,8.37
2019-05-12T00:13:01.727Z,8.38
2019-05-12T00:14:01.750Z,8.29
2019-05-12T00:15:01.792Z,8.30
2019-05-12T00:16:01.825Z,8.33
2019-05-12T00:17:01.867Z,8.34
2019-05-12T00:18:01.906Z,8.34
2019-05-12T00:19:01.944Z,8.30
2019-05-12T00:20:01.995Z,8.33
2019-05-12T00:21:02.020Z,8.34
2019-05-12T00:22:02.054Z,8.36
2019-05-12T00:23:02.096Z,8.34
2019-05-12T00:24:02.134Z,8.36
2019-05-12T00:25:02.172Z,8.38
2019-05-12T00:26:02.211Z,8.34
2019-05-12T00:27:02.352Z,8.33
2019-05-12T00:28:02.290Z,8.36
2019-05-12T00:29:02.329Z,8.37
2019-05-12T00:30:02.387Z,8.43
2019-05-12T00:31:02.401Z,8.37
2019-05-12T00:32:02.437Z,8.45
2019-05-12T00:33:02.480Z,8.41
2019-05-12T00:34:02.514Z,8.50
2019-05-12T00:35:02.554Z,8.43
2019-05-12T00:36:02.595Z,8.48
2019-05-12T00:37:02.628Z,8.43
2019-05-12T00:38:02.672Z,8.50
2019-05-12T00:39:02.712Z,8.52
2019-05-12T00:40:02.747Z,8.48
2019-05-12T00:41:02.794Z,8.43
2019-05-12T00:42:02.823Z,8.47
2019-05-12T00:43:02.859Z,8.47
2019-05-12T00:44:02.898Z,8.45
2019-05-12T00:45:02.946Z,8.48
2019-05-12T00:46:02.974Z,8.52
2019-05-12T00:47:03.012Z,8.48
2019-05-12T00:48:03.051Z,8.45
2019-05-12T00:49:03.090Z,8.48
2019-05-12T00:50:03.135Z,8.50
2019-05-12T00:51:03.166Z,8.41
2019-05-12T00:52:03.207Z,8.38
2019-05-12T00:53:03.304Z,8.41
2019-05-12T00:54:03.291Z,8.43
2019-05-12T00:55:03.321Z,8.37
2019-05-12T00:56:03.360Z,8.37
2019-05-12T00:57:03.405Z,8.41
2019-05-12T00:58:03.436Z,8.40
2019-05-12T00:59:03.475Z,8.37
2019-05-12T01:00:03.519Z,8.37
2019-05-12T01:01:03.555Z,8.34
2019-05-12T01:02:03.597Z,8.37
2019-05-12T01:03:03.639Z,8.29
2019-05-12T01:04:03.667Z,8.33
2019-05-12T01:05:03.704Z,8.29
2019-05-12T01:06:03.742Z,8.37
2019-05-12T01:07:03.780Z,8.37
2019-05-12T01:08:03.834Z,8.30
2019-05-12T01:09:03.858Z,8.34
2019-05-12T01:10:05.041Z,8.30
2019-05-12T01:11:03.945Z,8.28
2019-05-12T01:12:03.972Z,8.33
2019-05-12T01:13:04.012Z,8.28
2019-05-12T01:14:04.050Z,8.22
2019-05-12T01:15:04.087Z,8.23
2019-05-12T01:16:04.127Z,8.26
2019-05-12T01:17:04.166Z,8.23
2019-05-12T01:18:04.203Z,8.22
2019-05-12T01:19:04.246Z,8.23
2019-05-12T01:20:04.282Z,8.23
2019-05-12T01:21:04.321Z,8.20
2019-05-12T01:22:04.357Z,8.22
2019-05-12T01:23:04.395Z,8.23
2019-05-12T01:24:04.433Z,8.18
2019-05-12T01:25:04.472Z,8.19
2019-05-12T01:26:04.510Z,8.22
2019-05-12T01:27:04.553Z,8.11
2019-05-12T01:28:04.616Z,8.16
2019-05-12T01:29:04.636Z,8.11
2019-05-12T01:30:04.671Z,8.10
2019-05-12T01:31:04.705Z,8.15
2019-05-12T01:32:04.739Z,8.18
2019-05-12T01:33:04.779Z,8.04
2019-05-12T01:34:04.824Z,7.98
2019-05-12T01:35:04.855Z,8.08
2019-05-12T01:36:04.892Z,8.05
2019-05-12T01:37:04.931Z,7.90
2019-05-12T01:38:04.968Z,7.98
2019-05-12T01:39:05.009Z,8.02
2019-05-12T01:40:05.045Z,8.01
2019-05-12T01:41:05.086Z,7.95
2019-05-12T01:42:05.121Z,7.92
2019-05-12T01:43:05.160Z,7.87
2019-05-12T01:44:05.197Z,7.89
2019-05-12T01:45:05.239Z,7.92
2019-05-12T01:46:05.273Z,7.85
2019-05-12T01:47:05.324Z,7.83
2019-05-12T01:48:08.330Z,7.79
2019-05-12T01:49:05.396Z,7.82
2019-05-12T01:50:05.427Z,7.90
2019-05-12T01:51:05.465Z,7.75
2019-05-12T01:52:05.512Z,7.77
2019-05-12T01:53:07.926Z,7.72
2019-05-12T01:54:13.606Z,7.74
2019-05-12T01:55:07.977Z,7.72
2019-05-12T01:56:07.717Z,7.71
2019-05-12T01:57:07.979Z,7.68
2019-05-12T01:58:08.162Z,7.74
2019-05-12T01:59:07.956Z,7.69
2019-05-12T02:00:07.952Z,7.71
2019-05-12T02:01:08.065Z,7.71
2019-05-12T02:02:08.459Z,7.63
2019-05-12T02:03:05.923Z,7.63
2019-05-12T02:04:07.780Z,7.64
2019-05-12T02:05:08.216Z,7.67
2019-05-12T02:06:08.266Z,7.69
2019-05-12T02:07:08.235Z,7.67
2019-05-12T02:08:06.118Z,7.60
2019-05-12T02:09:07.982Z,7.58
2019-05-12T02:10:06.202Z,7.68
2019-05-12T02:11:07.911Z,7.58
2019-05-12T02:12:08.175Z,7.50
2019-05-12T02:13:07.905Z,7.48
2019-05-12T02:14:06.338Z,7.53
2019-05-12T02:15:08.186Z,7.53
2019-05-12T02:16:08.317Z,7.71
2019-05-12T02:17:08.683Z,7.50
2019-05-12T02:18:08.802Z,7.64
2019-05-12T02:19:08.776Z,7.58
2019-05-12T02:20:07.755Z,7.55
2019-05-12T02:21:08.379Z,7.61
2019-05-12T02:22:08.401Z,7.55
2019-05-12T02:23:08.787Z,7.58
2019-05-12T02:24:07.775Z,7.60
2019-05-12T02:25:08.085Z,7.55
2019-05-12T02:26:08.226Z,7.53
2019-05-12T02:27:08.281Z,7.60
2019-05-12T02:28:09.292Z,7.52
2019-05-12T02:29:07.877Z,7.48
2019-05-12T02:30:10.000Z,7.48
2019-05-12T02:31:09.606Z,7.64
2019-05-12T02:32:07.024Z,7.60
2019-05-12T02:33:07.084Z,7.58
2019-05-12T02:34:07.104Z,7.53
2019-05-12T02:35:07.144Z,7.53
2019-05-12T02:36:07.176Z,7.57
2019-05-12T02:37:07.211Z,7.57
2019-05-12T02:38:07.263Z,7.58
2019-05-12T02:39:07.290Z,7.58
2019-05-12T02:40:07.330Z,7.60
2019-05-12T02:41:07.368Z,7.55
2019-05-12T02:42:07.408Z,7.46
2019-05-12T02:43:07.440Z,7.58
2019-05-12T02:44:07.479Z,7.50
2019-05-12T02:45:07.516Z,7.48
2019-05-12T02:46:07.564Z,7.48
2019-05-12T02:47:07.593Z,7.55
2019-05-12T02:48:07.659Z,7.49
2019-05-12T02:49:07.668Z,7.45
2019-05-12T02:50:07.730Z,7.48
2019-05-12T02:51:07.745Z,7.52
2019-05-12T02:52:07.780Z,7.48
2019-05-12T02:53:07.910Z,7.46
2019-05-12T02:54:07.859Z,7.46
2019-05-12T02:55:07.903Z,7.46
2019-05-12T02:56:07.939Z,7.45
2019-05-12T02:57:07.978Z,7.42
2019-05-12T02:58:08.060Z,7.48
2019-05-12T02:59:08.049Z,7.48
2019-05-12T03:00:08.090Z,7.50
2019-05-12T03:01:08.122Z,7.52
2019-05-12T03:02:08.168Z,7.46
2019-05-12T03:03:08.255Z,7.42
2019-05-12T03:04:08.238Z,7.50
2019-05-12T03:05:08.277Z,7.49
2019-05-12T03:06:08.311Z,7.53
2019-05-12T03:07:08.351Z,7.48
2019-05-12T03:08:08.394Z,7.48
2019-05-12T03:09:08.425Z,7.43
2019-05-12T03:10:08.473Z,7.46
2019-05-12T03:11:08.512Z,7.53
2019-05-12T03:12:08.541Z,7.60
2019-05-12T03:13:08.580Z,7.61
2019-05-12T03:14:08.619Z,7.63
2019-05-12T03:15:08.652Z,7.68
2019-05-12T03:16:08.690Z,7.60
2019-05-12T03:17:08.736Z,7.58
2019-05-12T03:18:08.768Z,7.58
2019-05-12T03:19:08.804Z,7.55
2019-05-12T03:20:08.850Z,7.53
2019-05-12T03:21:08.878Z,7.58
2019-05-12T03:22:08.920Z,7.49
2019-05-12T03:23:08.957Z,7.63
2019-05-12T03:24:08.994Z,7.57
2019-05-12T03:25:20.472Z,7.57
2019-05-12T03:26:09.071Z,7.50
2019-05-12T03:27:09.108Z,7.64
2019-05-12T03:28:09.594Z,7.50
2019-05-12T03:29:09.186Z,7.58
2019-05-12T03:30:11.355Z,7.63
2019-05-12T03:31:09.260Z,7.57
2019-05-12T03:32:09.333Z,7.55
2019-05-12T03:33:11.803Z,7.58
2019-05-12T03:34:11.342Z,7.53
2019-05-12T03:35:09.647Z,7.60
2019-05-12T03:36:10.256Z,7.61
2019-05-12T03:37:09.490Z,7.52
2019-05-12T03:38:09.574Z,7.60
2019-05-12T03:39:09.576Z,7.58
2019-05-12T03:40:09.599Z,7.64
2019-05-12T03:41:09.638Z,7.58
2019-05-12T03:42:09.674Z,7.60
2019-05-12T03:43:09.714Z,7.64
2019-05-12T03:44:09.764Z,7.55
2019-05-12T03:45:09.789Z,7.58
2019-05-12T03:46:09.835Z,7.58
2019-05-12T03:47:09.865Z,7.60
2019-05-12T03:48:09.903Z,7.57
2019-05-12T03:49:09.942Z,7.61
2019-05-12T03:50:09.979Z,7.52
2019-05-12T03:51:10.017Z,7.61
2019-05-12T03:52:10.054Z,7.60
2019-05-12T03:53:11.181Z,7.53
2019-05-12T03:54:10.132Z,7.60
2019-05-12T03:55:27.300Z,7.61
2019-05-12T03:56:10.210Z,7.58
2019-05-12T03:57:10.245Z,7.57
2019-05-12T03:58:10.283Z,7.55
2019-05-12T03:59:10.321Z,7.55
2019-05-12T04:00:10.360Z,7.57
2019-05-12T04:01:10.398Z,7.55
2019-05-12T04:02:10.439Z,7.57
2019-05-12T04:03:10.475Z,7.55
2019-05-12T04:04:10.522Z,7.52
2019-05-12T04:05:10.557Z,7.52
2019-05-12T04:06:10.593Z,7.57
2019-05-12T04:07:10.624Z,7.63
2019-05-12T04:08:10.661Z,7.53
2019-05-12T04:09:10.759Z,7.49
2019-05-12T04:10:10.737Z,7.50
2019-05-12T04:11:10.775Z,7.63
2019-05-12T04:12:10.825Z,7.50
2019-05-12T04:13:10.849Z,7.61
2019-05-12T04:14:10.888Z,7.57
2019-05-12T04:15:10.926Z,7.60
2019-05-12T04:16:10.964Z,7.61
2019-05-12T04:17:11.010Z,7.71
2019-05-12T04:18:11.039Z,7.53
2019-05-12T04:19:14.407Z,7.61
2019-05-12T04:20:11.127Z,7.68
2019-05-12T04:21:11.158Z,7.60
2019-05-12T04:22:11.193Z,7.52
2019-05-12T04:23:11.232Z,7.61
2019-05-12T04:24:14.107Z,7.53
2019-05-12T04:25:14.271Z,7.57
2019-05-12T04:26:15.753Z,7.52
2019-05-12T04:27:14.785Z,7.60
2019-05-12T04:28:14.754Z,7.50
2019-05-12T04:29:11.465Z,7.68
2019-05-12T04:30:14.406Z,7.63
2019-05-12T04:31:11.537Z,7.50
2019-05-12T04:32:14.199Z,7.58
2019-05-12T04:33:15.148Z,7.63
2019-05-12T04:34:15.726Z,7.58
2019-05-12T04:35:14.541Z,7.64
2019-05-12T04:36:14.588Z,7.60
2019-05-12T04:37:14.571Z,7.60
2019-05-12T04:38:14.870Z,7.61
2019-05-12T04:39:14.739Z,7.63
2019-05-12T04:40:14.754Z,7.58
2019-05-12T04:41:14.580Z,7.57
2019-05-12T04:42:14.713Z,7.60
2019-05-12T04:43:14.549Z,7.64
2019-05-12T04:44:15.220Z,7.57
2019-05-12T04:45:15.261Z,7.61
2019-05-12T04:46:14.488Z,7.71
2019-05-12T04:47:14.567Z,7.72
2019-05-12T04:48:15.514Z,7.71
2019-05-12T04:49:15.503Z,7.79
2019-05-12T04:50:15.286Z,7.79
2019-05-12T04:51:15.184Z,7.82
2019-05-12T04:52:15.329Z,7.87
2019-05-12T04:53:14.485Z,7.89
2019-05-12T04:54:15.186Z,7.85
2019-05-12T04:55:14.988Z,7.86
2019-05-12T04:56:19.331Z,7.86
2019-05-12T04:57:14.929Z,7.75
2019-05-12T04:58:15.827Z,7.85
2019-05-12T04:59:15.768Z,7.83
2019-05-12T05:00:15.724Z,7.90
2019-05-12T05:01:15.488Z,7.98
2019-05-12T05:02:15.318Z,8.02
2019-05-12T05:03:14.137Z,8.04
2019-05-12T05:04:15.402Z,7.97
2019-05-12T05:05:14.514Z,8.04
2019-05-12T05:06:14.936Z,7.97
2019-05-12T05:07:15.018Z,8.04
2019-05-12T05:08:14.098Z,8.10
2019-05-12T05:09:14.399Z,8.00
2019-05-12T05:10:14.528Z,8.15
2019-05-12T05:11:14.803Z,8.15
2019-05-12T05:12:13.931Z,8.15
2019-05-12T05:13:14.927Z,8.07
2019-05-12T05:14:14.384Z,8.10
2019-05-12T05:15:14.590Z,8.15
2019-05-12T05:16:14.343Z,8.16
2019-05-12T05:17:14.998Z,8.15
2019-05-12T05:18:13.542Z,8.05
2019-05-12T05:19:13.926Z,8.08
2019-05-12T05:20:13.711Z,8.00
2019-05-12T05:21:14.013Z,7.97
2019-05-12T05:22:13.771Z,8.04
2019-05-12T05:23:14.162Z,8.04
2019-05-12T05:24:14.189Z,8.12
2019-05-12T05:25:14.489Z,8.02
2019-05-12T05:26:22.231Z,8.01
2019-05-12T05:27:13.662Z,8.01
2019-05-12T05:28:14.632Z,8.00
2019-05-12T05:29:13.793Z,8.00
2019-05-12T05:30:14.020Z,7.98
2019-05-12T05:31:14.098Z,7.92
2019-05-12T05:32:14.130Z,8.00
2019-05-12T05:33:14.671Z,7.92
2019-05-12T05:34:14.960Z,7.92
2019-05-12T05:35:13.972Z,7.89
2019-05-12T05:36:19.454Z,7.92
2019-05-12T05:37:14.660Z,7.87
2019-05-12T05:38:19.205Z,7.77
2019-05-12T05:39:14.201Z,7.89
2019-05-12T05:40:14.356Z,7.82
2019-05-12T05:41:14.207Z,7.92
2019-05-12T05:42:14.231Z,8.01
2019-05-12T05:43:18.650Z,7.97
2019-05-12T05:44:14.306Z,8.07
2019-05-12T05:45:19.492Z,8.01
2019-05-12T05:46:14.380Z,8.04
2019-05-12T05:47:14.419Z,8.01
2019-05-12T05:48:14.457Z,8.00
2019-05-12T05:49:14.495Z,8.00
2019-05-12T05:50:18.438Z,8.07
2019-05-12T05:51:14.589Z,8.04
2019-05-12T05:52:14.612Z,8.07
2019-05-12T05:53:19.532Z,8.08
2019-05-12T05:54:14.687Z,8.11
2019-05-12T05:55:19.876Z,8.19
2019-05-12T05:56:18.189Z,8.20
2019-05-12T05:57:14.801Z,8.10
2019-05-12T05:58:15.526Z,8.18
2019-05-12T05:59:15.289Z,8.30
2019-05-12T06:00:20.510Z,8.30
2019-05-12T06:01:14.973Z,8.22
2019-05-12T06:02:14.992Z,8.38
2019-05-12T06:03:22.915Z,8.56
2019-05-12T06:04:15.067Z,8.65
2019-05-12T06:05:15.108Z,8.63
2019-05-12T06:06:15.475Z,8.76
2019-05-12T06:07:15.188Z,8.91
2019-05-12T06:08:20.584Z,8.95
2019-05-12T06:09:15.258Z,9.14
2019-05-12T06:10:15.305Z,9.14
2019-05-12T06:11:23.961Z,9.23
2019-05-12T06:12:15.374Z,9.23
2019-05-12T06:13:15.434Z,9.33
2019-05-12T06:14:16.217Z,9.38
2019-05-12T06:15:15.490Z,9.23
2019-05-12T06:16:20.709Z,9.26
2019-05-12T06:17:15.565Z,9.36
2019-05-12T06:18:15.613Z,9.36
2019-05-12T06:19:15.644Z,9.35
2019-05-12T06:20:15.683Z,9.36
2019-05-12T06:21:15.729Z,9.42
2019-05-12T06:22:18.401Z,9.54
2019-05-12T06:23:15.797Z,9.53
2019-05-12T06:24:20.003Z,9.57
2019-05-12T06:25:16.437Z,9.60
2019-05-12T06:26:21.039Z,9.58
2019-05-12T06:27:20.817Z,9.53
2019-05-12T06:28:15.993Z,9.58
2019-05-12T06:29:20.112Z,9.54
2019-05-12T06:30:16.071Z,9.54
2019-05-12T06:31:18.904Z,9.38
2019-05-12T06:32:16.147Z,9.46
2019-05-12T06:33:16.186Z,9.35
2019-05-12T06:34:20.738Z,9.35
2019-05-12T06:35:16.270Z,9.36
2019-05-12T06:36:22.180Z,9.36
2019-05-12T06:37:17.253Z,9.42
2019-05-12T06:38:16.383Z,9.50
2019-05-12T06:39:20.557Z,9.60
2019-05-12T06:40:16.461Z,9.65
2019-05-12T06:41:20.651Z,9.65
2019-05-12T06:42:17.113Z,9.61
2019-05-12T06:43:16.579Z,9.61
2019-05-12T06:44:19.352Z,9.68
2019-05-12T06:45:16.707Z,9.75
2019-05-12T06:46:21.166Z,9.76
2019-05-12T06:47:16.734Z,9.78
2019-05-12T06:48:19.496Z,9.74
2019-05-12T06:49:17.660Z,9.91
2019-05-12T06:50:16.852Z,9.94
2019-05-12T06:51:22.765Z,10.15
2019-05-12T06:52:16.929Z,9.94
2019-05-12T06:53:20.350Z,9.90
2019-05-12T06:54:17.009Z,9.89
2019-05-12T06:55:17.048Z,9.81
2019-05-12T06:56:19.767Z,9.78
2019-05-12T06:57:24.458Z,9.74
2019-05-12T06:58:26.048Z,9.72
2019-05-12T06:59:17.236Z,9.71
2019-05-12T07:00:17.245Z,9.72
2019-05-12T07:01:19.478Z,9.87
2019-05-12T07:02:17.322Z,9.71
2019-05-12T07:03:19.342Z,9.76
2019-05-12T07:04:17.400Z,9.79
2019-05-12T07:05:17.441Z,9.75
2019-05-12T07:06:19.627Z,9.69
2019-05-12T07:07:17.521Z,9.75
2019-05-12T07:08:26.498Z,9.81
2019-05-12T07:09:26.661Z,9.86
2019-05-12T07:10:35.672Z,9.86
2019-05-12T07:11:17.679Z,9.84
2019-05-12T07:12:17.716Z,9.83
2019-05-12T07:13:23.133Z,9.83
2019-05-12T07:14:22.591Z,9.79
2019-05-12T07:15:17.860Z,9.79
2019-05-12T07:16:22.223Z,9.83
2019-05-12T07:17:17.924Z,9.83
2019-05-12T07:18:26.012Z,9.69
2019-05-12T07:19:22.604Z,9.81
2019-05-12T07:20:18.032Z,9.68
2019-05-12T07:21:20.143Z,9.54
2019-05-12T07:22:21.888Z,9.56
2019-05-12T07:23:19.619Z,9.66
2019-05-12T07:24:18.186Z,9.75
2019-05-12T07:25:22.789Z,9.76
2019-05-12T07:26:19.642Z,9.69
2019-05-12T07:27:18.322Z,9.74
2019-05-12T07:28:18.347Z,9.93
2019-05-12T07:29:18.393Z,10.12
2019-05-12T07:30:18.425Z,10.18
2019-05-12T07:31:18.462Z,10.18
2019-05-12T07:32:21.716Z,10.32
2019-05-12T07:33:18.561Z,10.25
2019-05-12T07:34:18.580Z,10.48
2019-05-12T07:35:18.625Z,10.51
2019-05-12T07:36:18.659Z,10.70
2019-05-12T07:37:18.699Z,10.63
2019-05-12T07:38:21.274Z,10.71
2019-05-12T07:39:18.779Z,10.78
2019-05-12T07:40:23.836Z,10.99
2019-05-12T07:41:18.859Z,11.28
2019-05-12T07:42:24.820Z,11.44
2019-05-12T07:43:20.650Z,11.49
2019-05-12T07:44:22.023Z,11.62
2019-05-12T07:45:22.465Z,11.86
2019-05-12T07:46:19.076Z,11.79
2019-05-12T07:47:24.199Z,11.62
2019-05-12T07:48:19.132Z,11.39
2019-05-12T07:49:22.516Z,11.35
2019-05-12T07:50:21.373Z,11.37
2019-05-12T07:51:19.253Z,11.03
2019-05-12T07:52:19.299Z,10.79
2019-05-12T07:53:19.359Z,10.59
2019-05-12T07:54:19.374Z,10.33
2019-05-12T07:55:19.421Z,10.30
2019-05-12T07:56:24.400Z,10.15
2019-05-12T07:57:19.500Z,10.34
2019-05-12T07:58:19.722Z,10.32
2019-05-12T07:59:19.581Z,10.22
2019-05-12T08:00:21.587Z,10.25
2019-05-12T08:01:19.664Z,10.22
2019-05-12T08:02:23.227Z,10.34
2019-05-12T08:03:21.333Z,10.40
2019-05-12T08:04:19.771Z,10.40
2019-05-12T08:05:21.308Z,10.38
2019-05-12T08:06:19.853Z,10.44
2019-05-12T08:07:25.169Z,10.55
2019-05-12T08:08:19.930Z,10.71
2019-05-12T08:09:24.247Z,10.76
2019-05-12T08:10:20.364Z,10.92
2019-05-12T08:11:20.050Z,10.91
2019-05-12T08:12:21.143Z,11.04
2019-05-12T08:13:20.140Z,11.09
2019-05-12T08:14:27.601Z,11.28
2019-05-12T08:15:20.213Z,11.32
2019-05-12T08:16:25.658Z,11.61
2019-05-12T08:17:20.287Z,11.78
2019-05-12T08:18:20.327Z,12.07
2019-05-12T08:19:23.649Z,12.23
2019-05-12T08:20:20.417Z,12.38
2019-05-12T08:21:20.453Z,12.41
2019-05-12T08:22:25.062Z,12.29
2019-05-12T08:23:20.527Z,12.32
2019-05-12T08:24:20.576Z,12.28
2019-05-12T08:25:27.078Z,12.24
2019-05-12T08:26:20.664Z,12.13
2019-05-12T08:27:20.688Z,11.76
2019-05-12T08:28:27.928Z,11.60
2019-05-12T08:29:23.743Z,11.47
2019-05-12T08:30:20.809Z,11.32
2019-05-12T08:31:23.620Z,11.25
2019-05-12T08:32:20.898Z,11.46
2019-05-12T08:33:20.928Z,11.39
2019-05-12T08:34:20.971Z,11.35
2019-05-12T08:35:28.160Z,11.40
2019-05-12T08:36:23.449Z,11.46
2019-05-12T08:37:21.093Z,11.47
2019-05-12T08:38:21.133Z,11.57
2019-05-12T08:39:23.601Z,11.57
2019-05-12T08:40:21.215Z,11.55
2019-05-12T08:41:23.372Z,11.51
2019-05-12T08:42:23.632Z,11.67
2019-05-12T08:43:23.866Z,11.80
2019-05-12T08:44:24.889Z,11.72
2019-05-12T08:45:25.074Z,11.76
2019-05-12T08:46:24.113Z,11.73
2019-05-12T08:47:23.843Z,11.55
2019-05-12T08:48:24.814Z,11.44
2019-05-12T08:49:23.534Z,11.46
2019-05-12T08:50:23.258Z,11.36
2019-05-12T08:51:21.664Z,11.35
2019-05-12T08:52:23.551Z,11.29
2019-05-12T08:53:23.521Z,11.09
2019-05-12T08:54:23.307Z,11.22
2019-05-12T08:55:25.118Z,11.21
2019-05-12T08:56:23.956Z,11.32
2019-05-12T08:57:24.010Z,11.39
2019-05-12T08:58:31.517Z,11.29
2019-05-12T08:59:26.639Z,11.40
2019-05-12T09:00:23.757Z,11.51
2019-05-12T09:01:28.648Z,11.55
2019-05-12T09:02:24.039Z,11.57
2019-05-12T09:03:27.178Z,11.60
2019-05-12T09:04:24.222Z,11.55
2019-05-12T09:05:25.844Z,11.64
2019-05-12T09:06:23.765Z,11.64
2019-05-12T09:07:24.281Z,11.67
2019-05-12T09:08:24.317Z,11.64
2019-05-12T09:09:23.287Z,11.82
2019-05-12T09:10:23.481Z,11.94
2019-05-12T09:11:24.251Z,12.13
2019-05-12T09:12:23.290Z,12.29
2019-05-12T09:13:23.417Z,12.53
2019-05-12T09:14:23.893Z,12.45
2019-05-12T09:15:23.941Z,12.38
2019-05-12T09:16:24.438Z,12.42
2019-05-12T09:17:23.265Z,12.46
2019-05-12T09:18:28.334Z,12.47
2019-05-12T09:19:24.860Z,12.60
2019-05-12T09:20:24.224Z,12.52
2019-05-12T09:21:31.370Z,12.54
2019-05-12T09:22:24.111Z,12.32
2019-05-12T09:23:23.977Z,12.21
2019-05-12T09:24:27.208Z,12.13
2019-05-12T09:25:23.857Z,12.07
2019-05-12T09:26:26.652Z,11.99
2019-05-12T09:27:24.130Z,12.04
2019-05-12T09:28:23.950Z,12.01
2019-05-12T09:29:25.137Z,12.16
2019-05-12T09:30:23.899Z,12.13
2019-05-12T09:31:25.375Z,11.96
2019-05-12T09:32:23.608Z,11.90
2019-05-12T09:33:27.578Z,11.82
2019-05-12T09:34:23.579Z,11.82
2019-05-12T09:35:23.620Z,11.70
2019-05-12T09:36:24.302Z,11.73
2019-05-12T09:37:24.034Z,11.83
2019-05-12T09:38:26.275Z,11.83
2019-05-12T09:39:23.589Z,11.94
2019-05-12T09:40:24.713Z,11.95
2019-05-12T09:41:24.081Z,12.04
2019-05-12T09:42:25.579Z,12.09
2019-05-12T09:43:24.048Z,12.13
2019-05-12T09:44:26.531Z,12.21
2019-05-12T09:45:24.215Z,12.29
2019-05-12T09:46:28.246Z,12.38
2019-05-12T09:47:27.555Z,12.54
2019-05-12T09:48:24.651Z,12.74
2019-05-12T09:49:31.350Z,12.95
2019-05-12T09:50:24.030Z,13.12
2019-05-12T09:51:24.071Z,13.12
2019-05-12T09:52:27.128Z,13.23
2019-05-12T09:53:24.153Z,13.38
2019-05-12T09:54:27.810Z,13.32
2019-05-12T09:55:24.827Z,13.30
2019-05-12T09:56:24.325Z,13.22
2019-05-12T09:57:24.316Z,13.03
2019-05-12T09:58:27.313Z,12.96
2019-05-12T09:59:25.858Z,12.78
2019-05-12T10:00:24.447Z,12.74
2019-05-12T10:01:29.161Z,12.82
2019-05-12T10:02:24.584Z,12.96
2019-05-12T10:03:24.565Z,12.85
2019-05-12T10:04:24.609Z,12.87
2019-05-12T10:05:24.650Z,12.78
2019-05-12T10:06:24.719Z,12.57
2019-05-12T10:07:24.814Z,12.53
2019-05-12T10:08:29.247Z,12.42
2019-05-12T10:09:24.806Z,12.42
2019-05-12T10:10:29.097Z,12.47
2019-05-12T10:11:24.891Z,12.39
2019-05-12T10:12:24.932Z,12.50
2019-05-12T10:13:28.233Z,12.62
2019-05-12T10:14:25.020Z,12.67
2019-05-12T10:15:28.669Z,12.71
2019-05-12T10:16:25.104Z,12.75
2019-05-12T10:17:26.256Z,12.78
2019-05-12T10:18:25.193Z,12.87
2019-05-12T10:19:25.215Z,12.95
2019-05-12T10:20:29.198Z,12.96
2019-05-12T10:21:25.319Z,12.96
2019-05-12T10:22:30.125Z,13.08
2019-05-12T10:23:27.368Z,13.05
2019-05-12T10:24:25.418Z,13.26
2019-05-12T10:25:28.685Z,13.30
2019-05-12T10:26:25.501Z,13.14
2019-05-12T10:27:27.189Z,13.11
2019-05-12T10:28:25.587Z,13.14
2019-05-12T10:29:30.731Z,13.14
2019-05-12T10:30:25.682Z,13.07
2019-05-12T10:31:29.468Z,13.12
2019-05-12T10:32:25.762Z,13.07
2019-05-12T10:33:25.815Z,12.97
2019-05-12T10:34:29.438Z,13.04
2019-05-12T10:35:26.877Z,13.17
2019-05-12T10:36:25.967Z,13.12
2019-05-12T10:37:29.349Z,13.20
2019-05-12T10:38:26.003Z,13.26
2019-05-12T10:39:26.050Z,13.17
2019-05-12T10:40:26.086Z,13.28
2019-05-12T10:41:26.126Z,13.42
2019-05-12T10:42:26.164Z,13.52
2019-05-12T10:43:26.196Z,13.63
2019-05-12T10:44:29.883Z,13.59
2019-05-12T10:45:26.277Z,13.59
2019-05-12T10:46:28.611Z,13.62
2019-05-12T10:47:26.408Z,13.81
2019-05-12T10:48:26.412Z,13.84
2019-05-12T10:49:26.441Z,13.88
2019-05-12T10:50:26.484Z,13.97
2019-05-12T10:51:26.527Z,14.00
2019-05-12T10:52:29.524Z,13.87
2019-05-12T10:53:26.607Z,13.82
2019-05-12T10:54:26.660Z,13.73
2019-05-12T10:55:26.700Z,13.63
2019-05-12T10:56:26.754Z,13.70
2019-05-12T10:57:26.785Z,13.81
2019-05-12T10:58:26.818Z,13.97
2019-05-12T10:59:32.901Z,13.82
2019-05-12T11:00:27.008Z,13.88
2019-05-12T11:01:26.996Z,14.03
2019-05-12T11:02:30.505Z,14.06
2019-05-12T11:03:27.027Z,14.27
2019-05-12T11:04:35.766Z,14.39
2019-05-12T11:05:27.137Z,14.55
2019-05-12T11:06:27.159Z,14.80
2019-05-12T11:07:28.170Z,14.92
2019-05-12T11:08:27.229Z,14.78
2019-05-12T11:09:31.501Z,14.64
2019-05-12T11:10:27.318Z,14.51
2019-05-12T11:11:32.888Z,14.33
2019-05-12T11:12:29.225Z,14.32
2019-05-12T11:13:27.456Z,14.33
2019-05-12T11:14:30.528Z,14.37
2019-05-12T11:15:27.525Z,14.35
2019-05-12T11:16:32.039Z,14.45
2019-05-12T11:17:27.607Z,14.25
2019-05-12T11:18:30.385Z,14.21
2019-05-12T11:19:27.715Z,14.17
2019-05-12T11:20:27.760Z,13.97
2019-05-12T11:21:27.778Z,14.07
2019-05-12T11:22:27.824Z,14.15
2019-05-12T11:23:27.859Z,14.18
2019-05-12T11:24:27.902Z,14.14
2019-05-12T11:25:27.944Z,14.25
2019-05-12T11:26:27.998Z,14.39
2019-05-12T11:27:28.034Z,14.35
2019-05-12T11:28:28.078Z,14.50
2019-05-12T11:29:41.726Z,14.55
2019-05-12T11:30:28.169Z,14.57
2019-05-12T11:31:28.195Z,14.64
2019-05-12T11:32:28.947Z,14.50
2019-05-12T11:33:28.279Z,14.52
2019-05-12T11:34:28.324Z,14.36
2019-05-12T11:35:28.363Z,14.17
2019-05-12T11:36:28.477Z,13.97
2019-05-12T11:37:29.073Z,13.91
2019-05-12T11:38:28.499Z,14.09
2019-05-12T11:39:30.655Z,14.17
2019-05-12T11:40:28.584Z,14.22
2019-05-12T11:41:28.666Z,14.46
2019-05-12T11:42:28.663Z,14.42
2019-05-12T11:43:29.842Z,14.43
2019-05-12T11:44:28.746Z,14.37
2019-05-12T11:45:28.783Z,14.55
2019-05-12T11:46:28.871Z,14.77
2019-05-12T11:47:28.876Z,14.91
2019-05-12T11:48:28.915Z,14.95
2019-05-12T11:49:28.950Z,14.95
2019-05-12T11:50:28.993Z,14.84
2019-05-12T11:51:30.495Z,14.68
2019-05-12T11:52:29.084Z,14.61
2019-05-12T11:53:30.979Z,14.33
2019-05-12T11:54:29.162Z,14.42
2019-05-12T11:55:31.576Z,14.42
2019-05-12T11:56:29.244Z,14.45
2019-05-12T11:57:30.410Z,14.54
2019-05-12T11:58:29.338Z,14.51
2019-05-12T11:59:30.099Z,14.57
2019-05-12T12:00:29.424Z,14.54
2019-05-12T12:01:29.457Z,14.62
2019-05-12T12:02:30.666Z,14.61
2019-05-12T12:03:29.546Z,14.47
2019-05-12T12:04:29.584Z,14.57
2019-05-12T12:05:29.628Z,14.50
2019-05-12T12:06:29.776Z,14.61
2019-05-12T12:07:29.778Z,14.47
2019-05-12T12:08:33.726Z,14.40
2019-05-12T12:09:29.795Z,14.20
2019-05-12T12:10:37.494Z,14.25
2019-05-12T12:11:29.878Z,14.36
2019-05-12T12:12:29.921Z,14.42
2019-05-12T12:13:30.225Z,14.65
2019-05-12T12:14:31.755Z,14.75
2019-05-12T12:15:30.405Z,14.89
2019-05-12T12:16:30.091Z,15.07
2019-05-12T12:17:33.475Z,15.13
2019-05-12T12:18:30.182Z,15.13
2019-05-12T12:19:37.871Z,15.11
2019-05-12T12:20:30.260Z,14.88
2019-05-12T12:21:34.278Z,14.70
2019-05-12T12:22:30.358Z,14.64
2019-05-12T12:23:30.392Z,14.62
2019-05-12T12:24:31.652Z,14.65
2019-05-12T12:25:30.473Z,14.58
2019-05-12T12:26:32.646Z,14.57
2019-05-12T12:27:30.560Z,14.68
2019-05-12T12:28:30.597Z,14.77
2019-05-12T12:29:30.653Z,14.98
2019-05-12T12:30:30.682Z,15.21
2019-05-12T12:31:37.246Z,15.34
2019-05-12T12:32:30.779Z,15.50
2019-05-12T12:33:35.681Z,15.60
2019-05-12T12:34:33.053Z,15.43
2019-05-12T12:35:30.907Z,15.43
2019-05-12T12:36:30.943Z,15.36
2019-05-12T12:37:32.722Z,15.13
2019-05-12T12:38:31.022Z,15.02
2019-05-12T12:39:31.063Z,14.84
2019-05-12T12:40:31.108Z,14.75
2019-05-12T12:41:31.217Z,14.80
2019-05-12T12:42:36.886Z,14.75
2019-05-12T12:43:31.239Z,14.77
2019-05-12T12:44:33.935Z,14.84
2019-05-12T12:45:38.391Z,15.03
2019-05-12T12:46:33.708Z,15.09
2019-05-12T12:47:35.933Z,15.19
2019-05-12T12:48:33.302Z,15.29
2019-05-12T12:49:33.754Z,15.34
2019-05-12T12:50:31.533Z,15.34
2019-05-12T12:51:31.576Z,15.38
2019-05-12T12:52:33.562Z,15.67
2019-05-12T12:53:31.658Z,15.89
2019-05-12T12:54:33.246Z,16.11
2019-05-12T12:55:31.743Z,16.31
2019-05-12T12:56:33.966Z,16.33
2019-05-12T12:57:33.525Z,16.39
2019-05-12T12:58:34.378Z,16.04
2019-05-12T12:59:33.357Z,15.87
2019-05-12T13:00:45.424Z,15.87
2019-05-12T13:01:33.502Z,15.75
2019-05-12T13:02:33.817Z,15.78
2019-05-12T13:03:33.993Z,15.75
2019-05-12T13:04:34.083Z,15.78
2019-05-12T13:05:34.381Z,15.60
2019-05-12T13:06:34.426Z,15.35
2019-05-12T13:07:33.382Z,15.51